Time;durP1;ratioP1;P1;durP2;ratioP2;P2;SDS_P1;SDS_P2;PMS_P1;PMS_P2;Temp;Humidity;BMP_temperature;BMP_pressure;BME280_temperature;BME280_humidity;BME280_pressure;Samples;Min_cycle;Max_cycle;Signal;HPM_P1;HPM_P2
2022/07/21 00:00:34;;;;;;;3.50;1.70;;;;;;;;;;4376684;32;20089;-66
2022/07/21 00:03:01;;;;;;;2.28;1.92;;;;;;;;;;4404689;32;20182;-66
2022/07/21 00:05:28;;;;;;;1.50;1.40;;;;;;;;;;4404963;32;20078;-64
2022/07/21 00:07:55;;;;;;;2.55;1.70;;;;;;;;;;4392436;32;20070;-65
2022/07/21 00:10:24;;;;;;;2.00;1.55;;;;;;;;;;4392265;32;20088;-65
2022/07/21 00:12:51;;;;;;;2.65;1.75;;;;;;;;;;4406352;32;20058;-64
2022/07/21 00:15:20;;;;;;;1.90;1.67;;;;;;;;;;4379590;32;20090;-66
2022/07/21 00:17:47;;;;;;;2.20;2.00;;;;;;;;;;4392282;32;20089;-65
2022/07/21 00:20:14;;;;;;;2.47;1.77;;;;;;;;;;4392347;32;20540;-65
2022/07/21 00:22:41;;;;;;;3.67;2.05;;;;;;;;;;4404755;32;20076;-65
2022/07/21 00:25:10;;;;;;;4.47;2.42;;;;;;;;;;4404776;32;20057;-64
2022/07/21 00:27:37;;;;;;;2.28;1.80;;;;;;;;;;4404635;32;20080;-65
2022/07/21 00:30:06;;;;;;;3.37;1.77;;;;;;;;;;4381985;32;20095;-65
2022/07/21 00:32:33;;;;;;;2.12;1.80;;;;;;;;;;4409633;32;20050;-65
2022/07/21 00:35:00;;;;;;;1.92;1.67;;;;;;;;;;4394904;32;20070;-65
2022/07/21 00:37:27;;;;;;;3.87;2.00;;;;;;;;;;4407626;32;20066;-65
2022/07/21 00:39:55;;;;;;;1.87;1.62;;;;;;;;;;4382420;32;20104;-65
2022/07/21 00:42:27;;;;;;;2.33;1.80;;;;;;;;;;4394272;32;20090;-66
2022/07/21 00:44:54;;;;;;;4.62;1.67;;;;;;;;;;4408057;32;20089;-65
2022/07/21 00:47:22;;;;;;;3.12;1.85;;;;;;;;;;4394880;32;20100;-65
2022/07/21 00:49:49;;;;;;;2.08;1.87;;;;;;;;;;4407514;32;20073;-65
2022/07/21 00:52:17;;;;;;;3.33;1.70;;;;;;;;;;4394937;32;20104;-65
2022/07/21 00:54:44;;;;;;;1.52;1.42;;;;;;;;;;4394945;32;20079;-66
2022/07/21 00:57:12;;;;;;;3.15;1.90;;;;;;;;;;4407070;32;20169;-65
2022/07/21 00:59:38;;;;;;;2.33;2.00;;;;;;;;;;4394650;32;20075;-65
2022/07/21 01:02:06;;;;;;;2.40;1.67;;;;;;;;;;4381650;32;20058;-65
2022/07/21 01:04:33;;;;;;;3.25;1.60;;;;;;;;;;4394807;32;20089;-65
2022/07/21 01:07:02;;;;;;;4.07;2.30;;;;;;;;;;4394757;32;20086;-65
2022/07/21 01:09:29;;;;;;;2.67;1.60;;;;;;;;;;4406976;32;20149;-65
2022/07/21 01:11:56;;;;;;;2.33;1.60;;;;;;;;;;4394500;32;20150;-65
2022/07/21 01:14:23;;;;;;;2.30;1.77;;;;;;;;;;4407067;32;20069;-65
2022/07/21 01:16:50;;;;;;;1.77;1.55;;;;;;;;;;4394670;32;20093;-65
2022/07/21 01:19:17;;;;;;;1.70;1.60;;;;;;;;;;4406985;32;20091;-64
2022/07/21 01:21:46;;;;;;;2.33;1.70;;;;;;;;;;4394186;32;20157;-65
2022/07/21 01:24:14;;;;;;;2.15;1.87;;;;;;;;;;4407048;32;20104;-64
2022/07/21 01:26:43;;;;;;;1.80;1.50;;;;;;;;;;4394207;32;20066;-65
2022/07/21 01:29:11;;;;;;;2.22;1.75;;;;;;;;;;4408543;32;20092;-65
2022/07/21 01:31:39;;;;;;;2.10;1.60;;;;;;;;;;4381630;32;20082;-65
2022/07/21 01:34:06;;;;;;;3.90;1.52;;;;;;;;;;4394072;32;20145;-66
2022/07/21 01:36:33;;;;;;;2.60;1.80;;;;;;;;;;4394133;32;20169;-65
2022/07/21 01:41:45;;;;;;;1.70;1.60;;;;;;;;;;4407144;32;20073;-65
2022/07/21 01:44:13;;;;;;;3.12;2.05;;;;;;;;;;4406539;32;20066;-66
2022/07/21 01:46:46;;;;;;;3.58;1.70;;;;;;;;;;4406553;32;20153;-65
2022/07/21 01:49:14;;;;;;;1.92;1.62;;;;;;;;;;4393843;32;20105;-65
2022/07/21 01:51:42;;;;;;;2.45;1.52;;;;;;;;;;4408127;32;20158;-65
2022/07/21 01:54:09;;;;;;;4.53;2.40;;;;;;;;;;4406664;32;20097;-65
2022/07/21 01:56:37;;;;;;;3.55;1.87;;;;;;;;;;4394066;32;20076;-65
2022/07/21 01:59:04;;;;;;;3.28;2.15;;;;;;;;;;4393599;32;20609;-64
2022/07/21 02:01:32;;;;;;;2.87;2.10;;;;;;;;;;4393487;32;20084;-64
2022/07/21 02:04:01;;;;;;;2.17;1.87;;;;;;;;;;4406102;32;20093;-65
2022/07/21 02:06:28;;;;;;;2.20;1.83;;;;;;;;;;4406599;32;20084;-65
2022/07/21 02:08:56;;;;;;;2.97;2.15;;;;;;;;;;4381152;32;20147;-65
2022/07/21 02:11:22;;;;;;;2.80;2.10;;;;;;;;;;4380958;32;20174;-65
2022/07/21 02:13:50;;;;;;;3.97;2.40;;;;;;;;;;4406319;32;20085;-65
2022/07/21 02:16:17;;;;;;;4.18;2.30;;;;;;;;;;4380608;32;20073;-65
2022/07/21 02:18:45;;;;;;;2.83;2.00;;;;;;;;;;4381058;32;20103;-64
2022/07/21 02:21:12;;;;;;;2.58;1.95;;;;;;;;;;4393387;32;20515;-65
2022/07/21 02:23:39;;;;;;;3.85;2.15;;;;;;;;;;4405899;32;20070;-66
2022/07/21 02:26:06;;;;;;;4.30;2.10;;;;;;;;;;4380495;32;20073;-65
2022/07/21 02:28:33;;;;;;;6.68;2.50;;;;;;;;;;4380483;32;20078;-65
2022/07/21 02:31:00;;;;;;;3.37;2.37;;;;;;;;;;4405798;32;20094;-65
2022/07/21 02:33:27;;;;;;;2.92;2.20;;;;;;;;;;4380423;32;20077;-65
2022/07/21 02:35:54;;;;;;;5.05;2.20;;;;;;;;;;4405579;32;20146;-65
2022/07/21 02:38:21;;;;;;;3.78;2.00;;;;;;;;;;4393067;32;20085;-65
2022/07/21 02:40:47;;;;;;;4.65;2.45;;;;;;;;;;4393048;32;20532;-66
2022/07/21 02:43:15;;;;;;;4.45;2.20;;;;;;;;;;4393051;32;20077;-65
2022/07/21 02:45:43;;;;;;;2.95;2.20;;;;;;;;;;4393629;32;20076;-63
2022/07/21 02:48:12;;;;;;;5.55;2.10;;;;;;;;;;4393082;32;20084;-65
2022/07/21 02:50:40;;;;;;;2.60;2.12;;;;;;;;;;4405892;32;20073;-65
2022/07/21 02:53:11;;;;;;;2.25;2.00;;;;;;;;;;4405238;32;20089;-65
2022/07/21 02:55:38;;;;;;;3.42;2.12;;;;;;;;;;4406198;32;20141;-65
2022/07/21 02:58:16;;;;;;;5.32;2.00;;;;;;;;;;4380685;32;20077;-65
2022/07/21 03:00:45;;;;;;;2.47;2.05;;;;;;;;;;4380810;32;20085;-65
2022/07/21 03:03:12;;;;;;;2.20;2.00;;;;;;;;;;4392829;32;20085;-64
2022/07/21 03:05:40;;;;;;;5.00;2.40;;;;;;;;;;4380339;32;20107;-65
2022/07/21 03:08:08;;;;;;;5.65;2.08;;;;;;;;;;4380117;32;20081;-66
2022/07/21 03:10:35;;;;;;;4.18;2.17;;;;;;;;;;4405397;32;20092;-65
2022/07/21 03:13:04;;;;;;;2.58;2.20;;;;;;;;;;4405498;32;20500;-65
2022/07/21 03:15:31;;;;;;;3.12;2.15;;;;;;;;;;4405667;32;20520;-65
2022/07/21 03:17:58;;;;;;;2.62;2.20;;;;;;;;;;4405727;32;20069;-66
2022/07/21 03:20:26;;;;;;;3.15;2.20;;;;;;;;;;4392611;32;20074;-65
2022/07/21 03:22:53;;;;;;;3.62;2.15;;;;;;;;;;4404798;32;20084;-64
2022/07/21 03:25:20;;;;;;;3.60;2.22;;;;;;;;;;4393410;32;20085;-65
2022/07/21 03:27:47;;;;;;;2.42;2.10;;;;;;;;;;4392550;32;20442;-65
2022/07/21 03:30:14;;;;;;;4.28;2.03;;;;;;;;;;4405229;32;20100;-65
2022/07/21 03:32:41;;;;;;;4.70;2.37;;;;;;;;;;4405181;32;20124;-65
2022/07/21 03:35:10;;;;;;;2.62;2.12;;;;;;;;;;4392733;32;20100;-67
2022/07/21 03:37:45;;;;;;;2.72;2.05;;;;;;;;;;4405563;32;20076;-65
2022/07/21 03:40:13;;;;;;;2.70;2.17;;;;;;;;;;4406460;32;20085;-65
2022/07/21 03:42:40;;;;;;;2.60;2.10;;;;;;;;;;4379968;32;20166;-65
2022/07/21 03:45:08;;;;;;;5.32;2.08;;;;;;;;;;4392580;32;20530;-64
2022/07/21 03:47:34;;;;;;;3.25;2.10;;;;;;;;;;4392538;32;20092;-66
2022/07/21 03:50:02;;;;;;;3.53;2.30;;;;;;;;;;4380000;32;20070;-65
2022/07/21 03:52:29;;;;;;;3.15;2.08;;;;;;;;;;4392497;32;20090;-65
2022/07/21 03:55:08;;;;;;;2.83;2.20;;;;;;;;;;4392537;32;20526;-65
2022/07/21 03:57:39;;;;;;;4.35;2.05;;;;;;;;;;4380896;32;20165;-65
2022/07/21 04:00:08;;;;;;;2.65;2.03;;;;;;;;;;4392191;32;20456;-65
2022/07/21 04:02:35;;;;;;;2.85;1.75;;;;;;;;;;4404944;32;20104;-65
2022/07/21 04:05:02;;;;;;;4.95;1.95;;;;;;;;;;4395107;32;20162;-65
2022/07/21 04:07:29;;;;;;;2.80;1.92;;;;;;;;;;4395654;32;20062;-65
2022/07/21 04:09:56;;;;;;;2.37;1.77;;;;;;;;;;4383016;32;20163;-65
2022/07/21 04:12:42;;;;;;;2.08;1.77;;;;;;;;;;4382745;32;20092;-65
2022/07/21 04:15:13;;;;;;;3.67;2.00;;;;;;;;;;4408464;32;20091;-65
2022/07/21 04:17:41;;;;;;;1.92;1.83;;;;;;;;;;4382673;32;20085;-64
2022/07/21 04:20:09;;;;;;;2.12;1.55;;;;;;;;;;4395546;32;20098;-65
2022/07/21 04:22:36;;;;;;;1.70;1.55;;;;;;;;;;4394922;32;20503;-65
2022/07/21 04:25:04;;;;;;;2.08;1.77;;;;;;;;;;4395184;32;20096;-65
2022/07/21 04:27:32;;;;;;;3.25;1.75;;;;;;;;;;4395163;32;20069;-65
2022/07/21 04:29:59;;;;;;;1.80;1.70;;;;;;;;;;4382939;32;20156;-65
2022/07/21 04:32:26;;;;;;;1.83;1.70;;;;;;;;;;4382628;32;20093;-64
2022/07/21 04:34:53;;;;;;;3.00;2.08;;;;;;;;;;4382464;32;20081;-65
2022/07/21 04:37:20;;;;;;;4.15;2.20;;;;;;;;;;4395144;32;20084;-65
2022/07/21 04:39:47;;;;;;;1.75;1.62;;;;;;;;;;4395218;32;20073;-66
2022/07/21 04:42:13;;;;;;;2.70;1.73;;;;;;;;;;4407317;32;20078;-65
2022/07/21 04:44:40;;;;;;;2.28;1.73;;;;;;;;;;4409293;32;20078;-64
2022/07/21 04:47:07;;;;;;;5.07;2.00;;;;;;;;;;4407784;32;20095;-65
2022/07/21 04:49:33;;;;;;;2.55;1.77;;;;;;;;;;4407217;32;20085;-64
2022/07/21 04:52:00;;;;;;;3.15;1.80;;;;;;;;;;4407359;32;20249;-65
2022/07/21 04:54:27;;;;;;;2.40;2.00;;;;;;;;;;4394923;32;20077;-65
2022/07/21 04:56:55;;;;;;;4.28;2.03;;;;;;;;;;4382733;32;20452;-65
2022/07/21 04:59:22;;;;;;;2.05;1.90;;;;;;;;;;4407416;32;20073;-65
2022/07/21 05:01:49;;;;;;;2.45;2.00;;;;;;;;;;4394672;32;20085;-65
2022/07/21 05:04:16;;;;;;;3.55;2.30;;;;;;;;;;4382228;32;20086;-66
2022/07/21 05:06:42;;;;;;;2.35;1.83;;;;;;;;;;4407106;32;20104;-65
2022/07/21 05:09:09;;;;;;;2.87;2.00;;;;;;;;;;4381665;32;20536;-65
2022/07/21 05:11:36;;;;;;;2.08;1.85;;;;;;;;;;4407579;32;20597;-65
2022/07/21 05:14:04;;;;;;;5.78;1.77;;;;;;;;;;4408369;32;20090;-65
2022/07/21 05:16:44;;;;;;;3.85;1.85;;;;;;;;;;3857444;37;20070;-65
2022/07/21 05:19:11;;;;;;;1.80;1.70;;;;;;;;;;4393268;32;20515;-65
2022/07/21 05:21:38;;;;;;;3.62;2.12;;;;;;;;;;4405978;32;20500;-65
2022/07/21 05:24:05;;;;;;;2.25;2.05;;;;;;;;;;4409350;32;20148;-65
2022/07/21 05:26:32;;;;;;;2.55;2.00;;;;;;;;;;4406253;32;20093;-66
2022/07/21 05:28:59;;;;;;;2.22;1.62;;;;;;;;;;4393289;32;20081;-65
2022/07/21 05:31:26;;;;;;;5.18;1.70;;;;;;;;;;4405883;32;20512;-65
2022/07/21 05:33:53;;;;;;;1.92;1.70;;;;;;;;;;4410958;32;20101;-65
2022/07/21 05:36:20;;;;;;;2.30;1.92;;;;;;;;;;4398749;32;20096;-64
2022/07/21 05:38:47;;;;;;;1.70;1.52;;;;;;;;;;4427249;32;20506;-65
2022/07/21 05:41:14;;;;;;;3.35;2.33;;;;;;;;;;4412953;32;20077;-65
2022/07/21 05:43:41;;;;;;;4.15;1.90;;;;;;;;;;4412443;32;20527;-65
2022/07/21 05:46:08;;;;;;;5.18;2.00;;;;;;;;;;4413146;32;20141;-65
2022/07/21 05:48:35;;;;;;;2.78;1.80;;;;;;;;;;4413387;32;20076;-64
2022/07/21 05:51:02;;;;;;;2.60;1.80;;;;;;;;;;4417048;32;20084;-65
2022/07/21 05:53:29;;;;;;;3.53;1.80;;;;;;;;;;4399511;32;20070;-66
2022/07/21 05:55:56;;;;;;;1.77;1.67;;;;;;;;;;4420570;32;20080;-64
2022/07/21 05:58:24;;;;;;;2.55;1.75;;;;;;;;;;4392757;32;20146;-65
2022/07/21 06:01:12;;;;;;;2.10;1.73;;;;;;;;;;4405114;32;20054;-65
2022/07/21 06:03:47;;;;;;;2.87;1.85;;;;;;;;;;4408050;32;20058;-65
2022/07/21 06:06:18;;;;;;;3.58;1.83;;;;;;;;;;4405228;32;20096;-65
2022/07/21 06:08:47;;;;;;;5.53;3.17;;;;;;;;;;4417703;32;20089;-65
2022/07/21 06:11:17;;;;;;;2.47;1.80;;;;;;;;;;4392073;32;20448;-64
2022/07/21 06:13:45;;;;;;;2.03;1.80;;;;;;;;;;4392184;32;20467;-62
2022/07/21 06:16:12;;;;;;;2.15;1.58;;;;;;;;;;4391934;32;20069;-64
2022/07/21 06:18:38;;;;;;;1.90;1.77;;;;;;;;;;4405312;32;20484;-64
2022/07/21 06:21:05;;;;;;;3.75;2.00;;;;;;;;;;4419041;32;20615;-65
2022/07/21 06:23:32;;;;;;;2.50;1.98;;;;;;;;;;4404847;32;20084;-63
2022/07/21 06:25:59;;;;;;;1.80;1.55;;;;;;;;;;4391311;32;20072;-64
2022/07/21 06:28:26;;;;;;;4.07;1.92;;;;;;;;;;4381968;32;20519;-64
2022/07/21 06:30:54;;;;;;;2.00;1.70;;;;;;;;;;4381972;32;20131;-64
2022/07/21 06:33:21;;;;;;;5.57;1.65;;;;;;;;;;4394553;32;20074;-65
2022/07/21 06:35:48;;;;;;;2.87;2.00;;;;;;;;;;4407023;32;20089;-65
2022/07/21 06:38:15;;;;;;;2.37;1.87;;;;;;;;;;4394771;32;20085;-63
2022/07/21 06:40:42;;;;;;;2.33;2.00;;;;;;;;;;4407011;32;20519;-64
2022/07/21 06:43:09;;;;;;;3.60;2.00;;;;;;;;;;4382266;32;20175;-64
2022/07/21 06:45:35;;;;;;;2.65;2.10;;;;;;;;;;4406529;32;20536;-65
2022/07/21 06:48:04;;;;;;;2.62;1.85;;;;;;;;;;4382415;32;20105;-64
2022/07/21 06:50:31;;;;;;;1.75;1.65;;;;;;;;;;4407222;32;20096;-64
2022/07/21 06:52:58;;;;;;;2.05;1.85;;;;;;;;;;4394289;32;20108;-64
2022/07/21 06:55:25;;;;;;;5.37;1.90;;;;;;;;;;4394068;32;20084;-64
2022/07/21 06:57:52;;;;;;;2.87;1.95;;;;;;;;;;4394446;32;20150;-63
2022/07/21 07:00:19;;;;;;;2.80;2.10;;;;;;;;;;4394455;32;20161;-63
2022/07/21 07:02:46;;;;;;;1.90;1.80;;;;;;;;;;4394399;32;20081;-64
2022/07/21 07:05:13;;;;;;;2.28;1.98;;;;;;;;;;4381465;32;20073;-64
2022/07/21 07:07:40;;;;;;;2.65;1.98;;;;;;;;;;4406684;32;20081;-65
2022/07/21 07:10:07;;;;;;;2.03;1.92;;;;;;;;;;4394878;32;20156;-64
2022/07/21 07:12:35;;;;;;;2.62;1.87;;;;;;;;;;4393994;32;20098;-64
2022/07/21 07:15:02;;;;;;;2.10;1.80;;;;;;;;;;4381188;32;20093;-63
2022/07/21 07:17:29;;;;;;;4.22;2.25;;;;;;;;;;4381480;32;20081;-64
2022/07/21 07:19:56;;;;;;;3.83;1.80;;;;;;;;;;4381599;32;20568;-63
2022/07/21 07:22:23;;;;;;;1.77;1.58;;;;;;;;;;4406356;32;20081;-64
2022/07/21 07:24:50;;;;;;;3.58;1.75;;;;;;;;;;4393930;32;20073;-64
2022/07/21 07:27:17;;;;;;;2.95;1.85;;;;;;;;;;4407522;32;20484;-64
2022/07/21 07:29:43;;;;;;;2.00;1.70;;;;;;;;;;4380972;32;20081;-64
2022/07/21 07:32:10;;;;;;;3.42;2.00;;;;;;;;;;4406111;32;20073;-64
2022/07/21 07:34:37;;;;;;;1.67;1.58;;;;;;;;;;4393497;32;20085;-64
2022/07/21 07:37:04;;;;;;;3.25;1.80;;;;;;;;;;4380747;32;20073;-64
2022/07/21 07:39:31;;;;;;;4.20;1.83;;;;;;;;;;4392928;32;20161;-64
2022/07/21 07:41:58;;;;;;;1.50;1.40;;;;;;;;;;4393611;32;20069;-64
2022/07/21 07:44:24;;;;;;;2.40;1.98;;;;;;;;;;4408010;32;20069;-64
2022/07/21 07:46:51;;;;;;;2.85;2.42;;;;;;;;;;4380868;32;20081;-65
2022/07/21 07:49:18;;;;;;;1.70;1.52;;;;;;;;;;4405813;32;20073;-65
2022/07/21 07:51:45;;;;;;;2.03;1.77;;;;;;;;;;4406449;32;20089;-65
2022/07/21 07:54:12;;;;;;;5.28;2.00;;;;;;;;;;4393538;32;20149;-64
2022/07/21 07:56:39;;;;;;;3.90;2.08;;;;;;;;;;4406369;32;20533;-65
2022/07/21 07:59:05;;;;;;;1.75;1.45;;;;;;;;;;4405988;32;20078;-65
2022/07/21 08:01:32;;;;;;;2.12;1.85;;;;;;;;;;4380541;32;20516;-65
2022/07/21 08:03:59;;;;;;;3.20;2.00;;;;;;;;;;4405425;32;20563;-65
2022/07/21 08:06:26;;;;;;;3.85;2.08;;;;;;;;;;4405876;32;20085;-64
2022/07/21 08:08:53;;;;;;;7.07;2.08;;;;;;;;;;4393130;32;20088;-65
2022/07/21 08:11:20;;;;;;;2.45;1.73;;;;;;;;;;4380580;32;20496;-65
2022/07/21 08:13:47;;;;;;;2.45;1.83;;;;;;;;;;4405421;32;20182;-64
2022/07/21 08:16:15;;;;;;;2.80;1.90;;;;;;;;;;4392516;32;20138;-64
2022/07/21 08:18:42;;;;;;;4.35;1.77;;;;;;;;;;4393100;32;20492;-65
2022/07/21 08:21:10;;;;;;;3.90;2.20;;;;;;;;;;4406264;32;20070;-65
2022/07/21 08:23:37;;;;;;;2.45;2.10;;;;;;;;;;4405971;32;20155;-65
2022/07/21 08:26:04;;;;;;;2.28;1.85;;;;;;;;;;4380366;32;20496;-65
2022/07/21 08:28:31;;;;;;;3.03;2.03;;;;;;;;;;4392854;32;20089;-65
2022/07/21 08:30:58;;;;;;;5.10;2.00;;;;;;;;;;4406835;32;20069;-64
2022/07/21 08:33:25;;;;;;;2.83;2.10;;;;;;;;;;4392345;32;20077;-65
2022/07/21 08:35:52;;;;;;;3.33;2.45;;;;;;;;;;4407014;32;20164;-65
2022/07/21 08:38:20;;;;;;;4.82;2.28;;;;;;;;;;4392726;32;20093;-65
2022/07/21 08:40:47;;;;;;;2.40;2.12;;;;;;;;;;4393215;32;20088;-65
2022/07/21 08:43:14;;;;;;;2.45;2.03;;;;;;;;;;4392861;32;20456;-64
2022/07/21 08:45:42;;;;;;;4.22;2.00;;;;;;;;;;4380121;32;20508;-65
2022/07/21 08:48:08;;;;;;;6.57;2.30;;;;;;;;;;4392853;32;20078;-65
2022/07/21 08:50:38;;;;;;;3.70;2.08;;;;;;;;;;4379799;32;20101;-64
2022/07/21 08:53:05;;;;;;;7.12;2.17;;;;;;;;;;4405899;32;20073;-64
2022/07/21 08:55:34;;;;;;;2.78;2.03;;;;;;;;;;4393189;32;20083;-64
2022/07/21 08:58:03;;;;;;;2.80;2.25;;;;;;;;;;4404980;32;20084;-65
2022/07/21 09:00:30;;;;;;;2.72;1.87;;;;;;;;;;4393166;32;20528;-64
2022/07/21 09:03:20;;;;;;;3.35;2.40;;;;;;;;;;4379931;32;20084;-63
2022/07/21 09:06:00;;;;;;;2.12;1.90;;;;;;;;;;4404871;32;20073;-65
2022/07/21 09:08:34;;;;;;;2.58;1.98;;;;;;;;;;4404972;32;20077;-65
2022/07/21 09:11:14;;;;;;;3.42;2.05;;;;;;;;;;4405241;32;20101;-64
2022/07/21 09:13:43;;;;;;;5.53;2.30;;;;;;;;;;4392334;32;20073;-64
2022/07/21 09:16:10;;;;;;;5.78;2.47;;;;;;;;;;4404497;32;20541;-64
2022/07/21 09:18:52;;;;;;;2.87;2.05;;;;;;;;;;4380155;32;20100;-65
2022/07/21 09:21:20;;;;;;;3.85;2.30;;;;;;;;;;4392184;32;20076;-65
2022/07/21 09:23:48;;;;;;;6.15;2.55;;;;;;;;;;4379422;32;20440;-64
2022/07/21 09:26:15;;;;;;;2.72;2.28;;;;;;;;;;4379933;32;20073;-64
2022/07/21 09:28:42;;;;;;;3.42;2.40;;;;;;;;;;4392227;32;20090;-64
2022/07/21 09:31:14;;;;;;;3.78;2.08;;;;;;;;;;4379505;32;20587;-65
2022/07/21 09:33:45;;;;;;;3.83;2.20;;;;;;;;;;4392647;32;20157;-64
2022/07/21 09:36:15;;;;;;;3.03;2.20;;;;;;;;;;4379854;32;20077;-64
2022/07/21 09:38:47;;;;;;;6.12;2.40;;;;;;;;;;4392199;32;20467;-64
2022/07/21 09:41:16;;;;;;;2.97;2.30;;;;;;;;;;4404749;32;20084;-63
2022/07/21 09:43:55;;;;;;;3.95;2.22;;;;;;;;;;4392525;32;20162;-64
2022/07/21 09:46:28;;;;;;;5.65;2.35;;;;;;;;;;4379561;32;20178;-64
2022/07/21 09:49:04;;;;;;;3.10;2.03;;;;;;;;;;4404985;32;20096;-64
2022/07/21 09:51:41;;;;;;;4.05;2.50;;;;;;;;;;4405701;32;20500;-63
2022/07/21 09:54:13;;;;;;;2.70;1.98;;;;;;;;;;4380591;32;20112;-64
2022/07/21 09:56:44;;;;;;;1.95;1.77;;;;;;;;;;4404749;32;20077;-63
2022/07/21 09:59:12;;;;;;;4.32;2.25;;;;;;;;;;4405317;32;20093;-71
2022/07/21 10:01:39;;;;;;;2.92;2.35;;;;;;;;;;4384865;32;20157;-71
2022/07/21 10:04:06;;;;;;;2.40;2.12;;;;;;;;;;4401963;32;20069;-69
2022/07/21 10:06:38;;;;;;;4.30;2.40;;;;;;;;;;4394706;32;20073;-69
2022/07/21 10:09:07;;;;;;;4.03;2.40;;;;;;;;;;4390632;32;20080;-70
2022/07/21 10:11:34;;;;;;;2.60;2.37;;;;;;;;;;4386764;32;20507;-66
2022/07/21 10:14:03;;;;;;;2.58;2.28;;;;;;;;;;4395102;32;20148;-62
2022/07/21 10:16:29;;;;;;;2.80;2.37;;;;;;;;;;4387492;32;20070;-63
2022/07/21 10:19:10;;;;;;;5.07;2.28;;;;;;;;;;4381140;32;20078;-63
2022/07/21 10:22:09;;;;;;;3.97;2.20;;;;;;;;;;4392722;32;20504;-64
2022/07/21 10:24:36;;;;;;;4.72;2.10;;;;;;;;;;4393398;32;20153;-63
2022/07/21 10:27:13;;;;;;;2.72;2.00;;;;;;;;;;4374125;32;20149;-63
2022/07/21 10:29:53;;;;;;;2.83;2.33;;;;;;;;;;4408949;32;20070;-64
2022/07/21 10:32:28;;;;;;;3.55;2.28;;;;;;;;;;4388961;32;20144;-64
2022/07/21 10:34:55;;;;;;;;;;;;;;;;;;4395077;32;20528;-64
2022/07/21 10:37:40;;;;;;;4.47;2.12;;;;;;;;;;4393772;32;20011;-64
2022/07/21 10:40:28;;;;;;;2.47;1.95;;;;;;;;;;4387794;32;20166;-63
2022/07/21 10:43:01;;;;;;;5.55;2.33;;;;;;;;;;4371684;32;20062;-64
2022/07/21 10:45:37;;;;;;;2.67;2.22;;;;;;;;;;4392016;32;20079;-64
2022/07/21 10:48:06;;;;;;;2.40;2.20;;;;;;;;;;4388578;32;20170;-63
2022/07/21 10:50:35;;;;;;;3.42;2.35;;;;;;;;;;4391519;32;20520;-64
2022/07/21 10:53:16;;;;;;;3.25;2.50;;;;;;;;;;4391275;32;20085;-63
2022/07/21 10:55:51;;;;;;;8.32;2.75;;;;;;;;;;4379923;32;20160;-64
2022/07/21 10:58:27;;;;;;;6.37;2.50;;;;;;;;;;4391743;32;20113;-64
2022/07/21 11:00:53;;;;;;;2.55;2.35;;;;;;;;;;4401593;32;20066;-69
2022/07/21 11:03:25;;;;;;;2.87;2.35;;;;;;;;;;4397207;32;20068;-64
2022/07/21 11:06:18;;;;;;;3.75;2.55;;;;;;;;;;4395685;32;20065;-63
2022/07/21 11:08:49;;;;;;;4.97;2.80;;;;;;;;;;4390230;32;20073;-63
2022/07/21 11:11:15;;;;;;;4.62;2.65;;;;;;;;;;4408337;32;20435;-62
2022/07/21 11:14:11;;;;;;;2.50;2.30;;;;;;;;;;4390175;32;20104;-63
2022/07/21 11:16:41;;;;;;;3.80;2.78;;;;;;;;;;4393538;32;20116;-64
2022/07/21 11:19:26;;;;;;;4.68;2.42;;;;;;;;;;4407262;32;20084;-64
2022/07/21 11:21:53;;;;;;;4.00;2.30;;;;;;;;;;4407646;32;20234;-65
2022/07/21 11:24:21;;;;;;;5.40;2.70;;;;;;;;;;4386636;32;20069;-64
2022/07/21 11:27:02;;;;;;;3.17;2.40;;;;;;;;;;4397039;32;20086;-63
2022/07/21 11:29:29;;;;;;;3.12;2.22;;;;;;;;;;4390720;32;20111;-63
2022/07/21 11:31:58;;;;;;;2.65;2.28;;;;;;;;;;4392154;32;20545;-63
2022/07/21 11:34:25;;;;;;;9.63;2.55;;;;;;;;;;4391729;32;20580;-68
2022/07/21 11:37:02;;;;;;;3.28;2.45;;;;;;;;;;4379128;32;20066;-65
2022/07/21 11:39:28;;;;;;;6.25;2.70;;;;;;;;;;4390140;32;20054;-66
2022/07/21 11:42:01;;;;;;;4.53;2.15;;;;;;;;;;4391472;32;20070;-66
2022/07/21 11:44:28;;;;;;;5.80;2.47;;;;;;;;;;4393768;32;20547;-66
2022/07/21 11:46:59;;;;;;;3.22;2.62;;;;;;;;;;4376489;32;20089;-65
2022/07/21 11:49:26;;;;;;;4.62;2.60;;;;;;;;;;4390715;32;20545;-68
2022/07/21 11:52:04;;;;;;;6.50;2.65;;;;;;;;;;4367661;32;20504;-65
2022/07/21 11:54:38;;;;;;;4.47;2.62;;;;;;;;;;4390361;32;20516;-66
2022/07/21 11:57:07;;;;;;;4.32;2.80;;;;;;;;;;4380581;32;20093;-66
2022/07/21 11:59:35;;;;;;;5.05;2.83;;;;;;;;;;4392420;32;20256;-66
2022/07/21 12:02:08;;;;;;;3.80;2.60;;;;;;;;;;4402706;32;20161;-67
2022/07/21 12:04:39;;;;;;;4.25;2.70;;;;;;;;;;4369074;32;20077;-68
2022/07/21 12:07:20;;;;;;;3.87;2.62;;;;;;;;;;4405460;32;20116;-64
2022/07/21 12:09:49;;;;;;;3.25;2.50;;;;;;;;;;4393335;32;20149;-65
2022/07/21 12:12:27;;;;;;;6.28;2.92;;;;;;;;;;4397451;32;20058;-64
2022/07/21 12:14:53;;;;;;;5.35;2.55;;;;;;;;;;4380612;32;20129;-65
2022/07/21 12:17:35;;;;;;;5.25;2.70;;;;;;;;;;4375758;32;20125;-69
2022/07/21 12:20:03;;;;;;;4.62;2.50;;;;;;;;;;4397614;32;20558;-65
2022/07/21 12:22:49;;;;;;;6.40;3.62;;;;;;;;;;4380869;32;20134;-65
2022/07/21 12:25:17;;;;;;;5.18;2.70;;;;;;;;;;4390487;32;20097;-67
2022/07/21 12:27:46;;;;;;;4.43;3.10;;;;;;;;;;4402602;32;20492;-65
2022/07/21 12:30:38;;;;;;;3.90;2.65;;;;;;;;;;4389605;32;20058;-64
2022/07/21 17:01:44;;;;;;;3.87;2.97;;;;;;;;;;3857571;37;20415;-62
2022/07/21 17:04:11;;;;;;;5.20;3.60;;;;;;;;;;4418592;32;20176;-64
2022/07/21 17:06:38;;;;;;;5.90;3.30;;;;;;;;;;4418637;32;20083;-64
2022/07/21 17:09:06;;;;;;;10.50;4.22;;;;;;;;;;4393087;32;20161;-64
2022/07/21 17:11:32;;;;;;;7.18;3.70;;;;;;;;;;4418328;32;20097;-65
2022/07/21 17:13:59;;;;;;;7.22;3.60;;;;;;;;;;4418358;32;20078;-64
2022/07/21 17:16:26;;;;;;;6.47;3.00;;;;;;;;;;4418386;32;20096;-63
2022/07/21 17:18:52;;;;;;;4.47;3.33;;;;;;;;;;4419690;32;20062;-65
2022/07/21 17:21:19;;;;;;;5.57;3.67;;;;;;;;;;4419276;32;20084;-64
2022/07/21 17:23:46;;;;;;;6.15;3.53;;;;;;;;;;4417843;32;20073;-64
2022/07/21 17:26:12;;;;;;;9.85;3.50;;;;;;;;;;4405793;32;20532;-64
2022/07/21 17:28:39;;;;;;;5.65;4.18;;;;;;;;;;4418110;32;20519;-64
2022/07/21 17:31:06;;;;;;;7.28;4.22;;;;;;;;;;4405367;32;20082;-64
2022/07/21 17:33:32;;;;;;;6.72;4.20;;;;;;;;;;4402689;32;20083;-64
2022/07/21 17:35:59;;;;;;;9.23;4.37;;;;;;;;;;4402638;32;20485;-64
2022/07/21 17:38:26;;;;;;;5.93;3.85;;;;;;;;;;4403886;32;20182;-64
2022/07/21 17:40:52;;;;;;;7.97;4.05;;;;;;;;;;4402634;32;20077;-64
2022/07/21 17:43:19;;;;;;;6.87;4.12;;;;;;;;;;4390071;32;20549;-64
2022/07/21 17:45:45;;;;;;;5.65;4.00;;;;;;;;;;4390137;32;20108;-63
2022/07/21 17:48:12;;;;;;;7.15;4.43;;;;;;;;;;4403041;32;20137;-64
2022/07/21 17:50:39;;;;;;;7.20;4.18;;;;;;;;;;4404101;32;20176;-64
2022/07/21 17:53:06;;;;;;;7.10;4.30;;;;;;;;;;4403860;32;20061;-63
2022/07/21 17:55:33;;;;;;;6.80;4.15;;;;;;;;;;4402651;32;20104;-64
2022/07/21 18:00:46;;;;;;;8.13;4.15;;;;;;;;;;4402299;32;20462;-64
2022/07/21 18:03:12;;;;;;;5.75;4.05;;;;;;;;;;4402830;32;20074;-64
2022/07/21 18:05:42;;;;;;;6.47;3.72;;;;;;;;;;4403881;32;20490;-64
2022/07/21 18:08:09;;;;;;;8.93;4.68;;;;;;;;;;4389400;32;20570;-64
2022/07/21 18:10:36;;;;;;;9.73;4.53;;;;;;;;;;4402074;32;20077;-64
2022/07/21 18:13:03;;;;;;;6.87;4.28;;;;;;;;;;4392434;32;20085;-65
2022/07/21 18:15:30;;;;;;;6.78;3.92;;;;;;;;;;4391932;32;20077;-64
2022/07/21 18:17:57;;;;;;;7.37;4.55;;;;;;;;;;4393511;32;20078;-64
2022/07/21 18:20:23;;;;;;;8.35;4.75;;;;;;;;;;4379533;32;20086;-63
2022/07/21 18:22:51;;;;;;;6.05;3.70;;;;;;;;;;4392144;32;20231;-64
2022/07/21 18:25:21;;;;;;;7.53;4.00;;;;;;;;;;4391796;32;20066;-64
2022/07/21 18:28:03;;;;;;;8.35;4.22;;;;;;;;;;4392437;32;20198;-64
2022/07/21 18:30:30;;;;;;;6.97;4.10;;;;;;;;;;4393020;32;20551;-65
2022/07/21 18:32:57;;;;;;;6.95;3.50;;;;;;;;;;4391793;32;20520;-64
2022/07/21 18:35:24;;;;;;;4.87;3.20;;;;;;;;;;4379366;32;20073;-65
2022/07/21 18:37:50;;;;;;;5.35;3.20;;;;;;;;;;4391945;32;20074;-64
2022/07/21 18:40:17;;;;;;;5.30;3.22;;;;;;;;;;4379288;32;20194;-64
2022/07/21 18:42:43;;;;;;;6.90;3.17;;;;;;;;;;4379085;32;20066;-64
2022/07/21 18:45:10;;;;;;;5.53;2.92;;;;;;;;;;4379660;32;20077;-64
2022/07/21 18:47:37;;;;;;;7.87;3.20;;;;;;;;;;4391396;32;20093;-64
2022/07/21 18:50:09;;;;;;;6.10;3.05;;;;;;;;;;4391635;32;20155;-64
2022/07/21 18:52:36;;;;;;;4.43;2.80;;;;;;;;;;4391454;32;20097;-64
2022/07/21 18:55:05;;;;;;;4.85;2.80;;;;;;;;;;4366447;32;20584;-64
2022/07/21 18:57:32;;;;;;;5.85;3.00;;;;;;;;;;4378875;32;20066;-64
2022/07/21 18:59:59;;;;;;;6.45;3.10;;;;;;;;;;4391415;32;20100;-64
2022/07/21 19:02:27;;;;;;;4.90;2.58;;;;;;;;;;4391389;32;20085;-64
2022/07/21 19:04:54;;;;;;;5.00;3.00;;;;;;;;;;4378763;32;20511;-64
2022/07/21 19:07:21;;;;;;;6.35;3.50;;;;;;;;;;4391496;32;20069;-64
2022/07/21 19:09:48;;;;;;;6.22;3.10;;;;;;;;;;4391245;32;20101;-64
2022/07/21 19:12:15;;;;;;;5.50;2.75;;;;;;;;;;4392484;32;20070;-64
2022/07/21 19:14:41;;;;;;;4.53;2.67;;;;;;;;;;4391374;32;20450;-64
2022/07/21 19:17:08;;;;;;;5.03;2.80;;;;;;;;;;4366307;32;20092;-64
2022/07/21 19:19:35;;;;;;;7.20;3.20;;;;;;;;;;4378668;32;20618;-64
2022/07/21 19:22:02;;;;;;;4.70;3.12;;;;;;;;;;4378396;32;20166;-64
2022/07/21 19:24:29;;;;;;;8.18;3.53;;;;;;;;;;4377862;32;20097;-64
2022/07/21 19:26:56;;;;;;;4.93;3.08;;;;;;;;;;4378399;32;20096;-64